createdAt,value
2023-02-11T00:00:35.241Z,27.80
2023-02-11T00:03:04.543Z,27.80
2023-02-11T00:05:32.255Z,26.43
2023-02-11T00:07:59.933Z,25.53
2023-02-11T00:10:27.616Z,26.60
2023-02-11T00:12:55.360Z,26.47
2023-02-11T00:15:23.134Z,24.70
2023-02-11T00:17:50.882Z,25.13
2023-02-11T00:20:20.696Z,25.50
2023-02-11T00:22:48.428Z,24.20
2023-02-11T00:25:16.110Z,24.17
2023-02-11T00:27:43.820Z,23.73
2023-02-11T00:30:12.260Z,22.70
2023-02-11T00:32:39.991Z,24.23
2023-02-11T00:35:08.686Z,23.20
2023-02-11T00:37:37.750Z,21.30
2023-02-11T00:40:06.902Z,22.37
2023-02-11T00:42:35.626Z,21.73
2023-02-11T00:45:03.597Z,21.63
2023-02-11T00:47:31.360Z,22.63
2023-02-11T00:50:00.920Z,21.40
2023-02-11T00:52:29.887Z,21.50
2023-02-11T00:54:58.989Z,20.50
2023-02-11T00:57:26.740Z,19.33
2023-02-11T00:59:54.390Z,19.87
2023-02-11T01:02:22.132Z,22.10
2023-02-11T01:04:50.051Z,19.13
2023-02-11T01:07:17.828Z,17.57
2023-02-11T01:09:45.499Z,19.03
2023-02-11T01:12:14.583Z,17.97
2023-02-11T01:14:42.432Z,17.47
2023-02-11T01:17:10.178Z,17.50
2023-02-11T01:19:38.133Z,18.37
2023-02-11T01:22:06.123Z,17.97
2023-02-11T01:24:34.105Z,17.00
2023-02-11T01:27:01.792Z,16.77
2023-02-11T01:29:30.931Z,17.50
2023-02-11T01:31:58.725Z,15.97
2023-02-11T01:34:26.413Z,17.90
2023-02-11T01:36:58.400Z,14.43
2023-02-11T01:39:26.096Z,16.53
2023-02-11T01:41:53.773Z,15.23
2023-02-11T01:44:30.694Z,16.33
2023-02-11T01:46:58.789Z,15.67
2023-02-11T01:49:28.948Z,14.83
2023-02-11T01:52:00.457Z,14.83
2023-02-11T01:54:49.310Z,14.40
2023-02-11T01:57:25.905Z,14.47
2023-02-11T02:00:00.918Z,14.27
2023-02-11T02:02:34.343Z,14.03
2023-02-11T02:05:06.517Z,14.97
2023-02-11T02:07:38.259Z,13.37
2023-02-11T02:10:09.416Z,12.83
2023-02-11T02:12:37.144Z,12.57
2023-02-11T02:15:24.498Z,13.30
2023-02-11T02:17:58.881Z,14.27
2023-02-11T02:20:45.998Z,12.73
2023-02-11T02:23:30.180Z,12.33
2023-02-11T02:26:21.049Z,12.23
2023-02-11T02:29:18.860Z,12.07
2023-02-11T02:31:56.005Z,11.20
2023-02-11T02:34:30.631Z,11.43
2023-02-11T02:37:03.751Z,12.53
2023-02-11T02:39:33.947Z,11.10
2023-02-11T02:42:02.175Z,12.47
2023-02-11T02:44:30.336Z,10.93
2023-02-11T02:46:58.188Z,12.27
2023-02-11T02:49:27.288Z,11.43
2023-02-11T02:52:09.180Z,10.90
2023-02-11T02:54:58.427Z,11.10
2023-02-11T02:57:32.074Z,11.97
2023-02-11T03:00:14.110Z,11.47
2023-02-11T03:02:50.081Z,11.40
2023-02-11T03:05:23.673Z,11.00
2023-02-11T03:07:56.078Z,12.03
2023-02-11T03:10:28.111Z,11.27
2023-02-11T03:12:56.672Z,10.93
2023-02-11T03:15:26.120Z,10.90
2023-02-11T03:17:55.751Z,12.90
2023-02-11T03:20:24.986Z,12.23
2023-02-11T03:22:57.109Z,11.87
2023-02-11T03:25:30.216Z,10.83
2023-02-11T03:28:02.334Z,12.27
2023-02-11T03:30:33.696Z,11.63
2023-02-11T03:33:04.676Z,11.70
2023-02-11T03:35:37.166Z,11.77
2023-02-11T03:38:07.220Z,10.97
2023-02-11T03:40:37.991Z,11.03
2023-02-11T03:43:09.517Z,12.07
2023-02-11T03:45:37.924Z,12.33
2023-02-11T03:48:08.364Z,12.43
2023-02-11T03:50:38.368Z,12.27
2023-02-11T03:53:06.564Z,12.13
2023-02-11T03:55:37.324Z,11.53
2023-02-11T03:58:05.082Z,12.80
2023-02-11T04:00:33.040Z,12.03
2023-02-11T04:03:00.857Z,11.97
2023-02-11T04:05:28.593Z,13.53
2023-02-11T04:07:57.661Z,12.63
2023-02-11T04:10:25.712Z,13.37
2023-02-11T04:12:53.408Z,12.40
2023-02-11T04:15:21.194Z,14.17
2023-02-11T04:17:48.859Z,13.43
2023-02-11T04:20:16.645Z,12.57
2023-02-11T04:22:44.306Z,14.63
2023-02-11T04:25:13.369Z,13.50
2023-02-11T04:27:41.082Z,12.93
2023-02-11T04:30:11.883Z,14.13
2023-02-11T04:32:39.648Z,12.47
2023-02-11T04:35:08.149Z,14.47
2023-02-11T04:37:36.704Z,14.33
2023-02-11T04:40:05.050Z,15.13
2023-02-11T04:42:34.100Z,14.13
2023-02-11T04:45:01.923Z,14.97
2023-02-11T04:47:29.628Z,15.27
2023-02-11T04:49:57.326Z,13.90
2023-02-11T04:52:25.000Z,16.07
2023-02-11T04:54:52.698Z,17.07
2023-02-11T04:57:20.339Z,16.67
2023-02-11T04:59:49.419Z,16.23
2023-02-11T05:02:17.094Z,17.10
2023-02-11T05:04:44.860Z,16.53
2023-02-11T05:07:12.640Z,17.87
2023-02-11T05:09:40.496Z,17.70
2023-02-11T05:12:08.480Z,18.77
2023-02-11T05:14:36.177Z,17.23
2023-02-11T05:17:05.299Z,16.67
2023-02-11T05:19:33.184Z,17.87
2023-02-11T05:22:03.454Z,18.13
2023-02-11T05:24:31.552Z,19.80
2023-02-11T05:26:59.308Z,17.60
2023-02-11T05:29:27.050Z,19.70
2023-02-11T05:31:54.793Z,18.17
2023-02-11T05:34:23.844Z,18.97
2023-02-11T05:36:51.517Z,20.00
2023-02-11T05:39:19.261Z,18.73
2023-02-11T05:41:46.935Z,20.37
2023-02-11T05:44:14.624Z,21.60
2023-02-11T05:46:42.417Z,20.07
2023-02-11T05:49:10.198Z,20.07
2023-02-11T05:51:39.305Z,20.13
2023-02-11T05:54:07.161Z,20.90
2023-02-11T05:56:34.904Z,21.10
2023-02-11T05:59:02.644Z,20.33
2023-02-11T06:01:30.532Z,19.90
2023-02-11T06:03:58.317Z,20.67
2023-02-11T06:06:26.035Z,20.67
2023-02-11T06:08:56.384Z,20.70
2023-02-11T06:11:24.261Z,19.70
2023-02-11T06:13:52.146Z,21.77
2023-02-11T06:16:19.878Z,22.77
2023-02-11T06:18:47.565Z,21.27
2023-02-11T06:21:15.326Z,22.87
2023-02-11T06:23:43.509Z,22.00
2023-02-11T06:26:18.909Z,21.63
2023-02-11T06:28:46.833Z,22.37
2023-02-11T06:31:14.878Z,23.70
2023-02-11T06:33:42.740Z,22.90
2023-02-11T06:36:17.046Z,24.70
2023-02-11T06:38:45.163Z,24.50
2023-02-11T06:41:15.584Z,23.40
2023-02-11T06:43:43.630Z,24.53
2023-02-11T06:46:11.394Z,25.90
2023-02-11T06:48:39.262Z,23.87
2023-02-11T06:51:09.422Z,24.67
2023-02-11T06:53:38.225Z,24.47
2023-02-11T06:56:07.031Z,24.00
2023-02-11T06:58:36.627Z,24.13
2023-02-11T07:01:07.486Z,26.10
2023-02-11T07:03:36.358Z,24.23
2023-02-11T07:06:05.509Z,25.50
2023-02-11T07:08:34.259Z,26.70
2023-02-11T07:11:02.268Z,27.00
2023-02-11T07:13:30.008Z,27.40
2023-02-11T07:15:59.176Z,29.17
2023-02-11T07:18:26.927Z,26.63
2023-02-11T07:20:54.594Z,27.67
2023-02-11T07:23:22.306Z,28.10
2023-02-11T07:25:50.300Z,29.17
2023-02-11T07:28:18.333Z,29.97
2023-02-11T07:30:46.113Z,29.30
2023-02-11T07:33:15.143Z,29.60
2023-02-11T07:35:42.881Z,30.43
2023-02-11T07:38:10.630Z,29.93
2023-02-11T07:40:38.295Z,29.63
2023-02-11T07:43:06.035Z,30.03
2023-02-11T07:45:33.745Z,32.23
2023-02-11T07:48:01.556Z,33.00
2023-02-11T07:50:30.657Z,33.27
2023-02-11T07:52:58.287Z,33.17
2023-02-11T07:55:26.006Z,33.83
2023-02-11T07:57:53.732Z,33.93
2023-02-11T08:00:21.750Z,36.03
2023-02-11T08:02:49.403Z,33.47
2023-02-11T08:05:17.325Z,38.47
2023-02-11T08:07:46.365Z,34.30
2023-02-11T08:10:14.048Z,36.77
2023-02-11T08:12:42.162Z,37.37
2023-02-11T08:15:10.591Z,33.67
2023-02-11T08:17:38.646Z,35.70
2023-02-11T08:20:07.327Z,35.97
2023-02-11T08:22:35.804Z,36.53
2023-02-11T08:25:05.232Z,38.07
2023-02-11T08:27:33.010Z,35.73
2023-02-11T08:30:01.816Z,36.30
2023-02-11T08:32:29.510Z,37.13
2023-02-11T08:34:57.184Z,36.70
2023-02-11T08:37:24.885Z,34.63
2023-02-11T08:39:52.628Z,38.33
2023-02-11T08:42:21.739Z,40.13
2023-02-11T08:44:49.424Z,37.53
2023-02-11T08:47:17.143Z,37.40
2023-02-11T08:49:44.858Z,37.30
2023-02-11T08:52:12.860Z,36.90
2023-02-11T08:54:40.534Z,36.97
2023-02-11T08:57:08.250Z,37.27
2023-02-11T08:59:38.044Z,36.83
2023-02-11T09:02:05.791Z,37.87
2023-02-11T09:04:33.508Z,37.80
2023-02-11T09:07:01.222Z,35.00
2023-02-11T09:09:28.954Z,34.97
2023-02-11T09:11:57.431Z,36.50
2023-02-11T09:14:25.701Z,36.97
2023-02-11T09:16:55.148Z,36.83
2023-02-11T09:19:24.086Z,34.57
2023-02-11T09:21:51.828Z,34.77
2023-02-11T09:24:19.647Z,35.47
2023-02-11T09:26:47.377Z,35.47
2023-02-11T09:29:15.080Z,33.50
2023-02-11T09:31:42.946Z,35.43
2023-02-11T09:34:13.242Z,34.27
2023-02-11T09:36:41.569Z,33.90
2023-02-11T09:39:12.790Z,32.77
2023-02-11T09:41:47.981Z,30.93
2023-02-11T09:44:20.732Z,33.87
2023-02-11T09:46:53.782Z,31.37
2023-02-11T09:49:24.718Z,33.03
2023-02-11T09:51:55.119Z,32.07
2023-02-11T09:54:28.336Z,31.83
2023-02-11T09:56:55.973Z,31.83
2023-02-11T09:59:23.865Z,31.97
2023-02-11T10:01:55.127Z,31.27
2023-02-11T10:04:34.843Z,31.07
2023-02-11T10:07:09.063Z,30.70
2023-02-11T10:09:45.397Z,32.63
2023-02-11T10:12:23.200Z,30.80
2023-02-11T10:15:04.843Z,29.03
2023-02-11T10:17:39.711Z,29.43
2023-02-11T10:20:18.631Z,30.27
2023-02-11T10:22:49.332Z,31.23
2023-02-11T10:25:21.341Z,29.77
2023-02-11T10:27:49.614Z,28.43
2023-02-11T10:30:23.143Z,28.97
2023-02-11T10:32:53.538Z,29.20
2023-02-11T10:35:24.165Z,28.90
2023-02-11T10:37:51.936Z,27.40
2023-02-11T10:40:21.439Z,28.30
2023-02-11T10:42:53.556Z,28.87
2023-02-11T10:45:27.291Z,24.53
2023-02-11T10:47:56.107Z,24.50
2023-02-11T10:50:27.427Z,24.77
2023-02-11T10:53:02.480Z,26.00
2023-02-11T10:55:30.149Z,26.50
2023-02-11T10:57:59.839Z,23.83
2023-02-11T11:00:36.760Z,23.10
2023-02-11T11:03:06.172Z,21.63
2023-02-11T11:05:38.667Z,21.97
2023-02-11T11:08:08.540Z,21.00
2023-02-11T11:10:43.486Z,19.57
2023-02-11T11:13:28.645Z,19.20
2023-02-11T11:16:23.226Z,19.87
2023-02-11T11:18:53.331Z,17.80
2023-02-11T11:21:24.508Z,17.37
2023-02-11T11:23:57.668Z,17.40
2023-02-11T11:26:27.089Z,17.40
2023-02-11T11:28:58.649Z,17.60
2023-02-11T11:31:29.278Z,17.60
2023-02-11T11:33:59.383Z,16.93
2023-02-11T11:36:36.270Z,16.43
2023-02-11T11:39:13.635Z,14.87
2023-02-11T11:41:51.260Z,13.57
2023-02-11T11:44:25.486Z,13.80
2023-02-11T11:47:06.302Z,13.43
2023-02-11T11:49:36.871Z,13.03
2023-02-11T11:52:13.038Z,12.33
2023-02-11T11:54:43.008Z,12.17
2023-02-11T11:57:14.048Z,11.87
2023-02-11T11:59:41.817Z,11.77
2023-02-11T12:02:24.825Z,11.23
2023-02-11T12:05:01.538Z,10.90
2023-02-11T12:07:41.045Z,10.67
2023-02-11T12:10:26.727Z,12.20
2023-02-11T12:12:57.401Z,13.57
2023-02-11T12:15:32.741Z,10.50
2023-02-11T12:18:10.455Z,10.33
2023-02-11T12:20:49.694Z,10.10
2023-02-11T12:23:33.818Z,9.47
2023-02-11T12:26:08.929Z,8.97
2023-02-11T12:28:41.915Z,9.70
2023-02-11T12:31:23.787Z,10.77
2023-02-11T12:34:11.186Z,8.73
2023-02-11T12:36:54.245Z,8.47
2023-02-11T12:39:34.608Z,8.77
2023-02-11T12:42:34.306Z,7.60
2023-02-11T12:45:14.891Z,7.83
2023-02-11T12:47:53.995Z,8.93
2023-02-11T12:50:25.989Z,8.87
2023-02-11T12:53:13.134Z,8.17
2023-02-11T12:55:45.439Z,7.90
2023-02-11T12:58:17.459Z,8.27
2023-02-11T13:00:49.591Z,8.03
2023-02-11T13:03:21.815Z,7.37
2023-02-11T13:05:53.244Z,8.67
2023-02-11T13:08:26.037Z,6.80
2023-02-11T13:10:57.267Z,7.53
2023-02-11T13:13:28.817Z,7.70
2023-02-11T13:16:02.106Z,7.10
2023-02-11T13:18:49.360Z,6.90
2023-02-11T13:21:37.664Z,7.20
2023-02-11T13:24:18.487Z,6.70
2023-02-11T13:26:52.441Z,6.13
2023-02-11T13:29:28.827Z,7.13
2023-02-11T13:31:57.366Z,6.93
2023-02-11T13:34:26.612Z,6.67
2023-02-11T13:36:57.798Z,8.20
2023-02-11T13:39:25.787Z,6.63
2023-02-11T13:42:03.512Z,6.27
2023-02-11T13:44:34.531Z,7.00
2023-02-11T13:47:04.644Z,6.87
2023-02-11T13:49:36.377Z,6.80
2023-02-11T13:52:06.639Z,7.30
2023-02-11T13:54:38.301Z,6.67
2023-02-11T13:57:31.899Z,6.30
2023-02-11T14:00:01.230Z,6.40
2023-02-11T14:02:50.369Z,6.70
2023-02-11T14:05:47.371Z,6.23
2023-02-11T14:08:41.440Z,6.30
2023-02-11T14:11:47.042Z,6.70
2023-02-11T14:14:24.461Z,6.50
2023-02-11T14:17:30.881Z,5.80
2023-02-11T14:19:59.168Z,6.70
2023-02-11T14:22:29.568Z,6.17
2023-02-11T14:24:59.646Z,6.23
2023-02-11T14:27:39.440Z,6.87
2023-02-11T14:30:31.511Z,5.80
2023-02-11T14:33:29.473Z,5.40
2023-02-11T14:36:04.530Z,6.10
2023-02-11T14:38:41.524Z,5.73
2023-02-11T14:41:12.983Z,6.03
2023-02-11T14:43:41.929Z,5.83
2023-02-11T14:46:11.312Z,6.03
2023-02-11T14:48:40.505Z,6.07
2023-02-11T14:51:09.666Z,5.17
2023-02-11T14:53:38.239Z,6.20
2023-02-11T14:56:18.470Z,5.57
2023-02-11T14:58:48.413Z,6.00
2023-02-11T15:01:30.375Z,6.03
2023-02-11T15:04:00.571Z,5.83
2023-02-11T15:06:31.391Z,6.93
2023-02-11T15:09:01.939Z,5.27
2023-02-11T15:11:32.858Z,6.00
2023-02-11T15:14:07.528Z,5.70
2023-02-11T15:16:41.960Z,5.63
2023-02-11T15:19:21.054Z,6.03
2023-02-11T15:21:48.820Z,6.00
2023-02-11T15:24:25.381Z,6.20
2023-02-11T15:27:00.659Z,7.00
2023-02-11T15:29:29.427Z,6.13
2023-02-11T15:32:17.170Z,6.17
2023-02-11T15:34:45.758Z,5.20
2023-02-11T15:37:15.377Z,6.00
2023-02-11T15:39:43.685Z,6.47
2023-02-11T15:42:25.617Z,6.37
2023-02-11T15:45:12.804Z,5.17
2023-02-11T15:47:44.004Z,5.87
2023-02-11T15:50:23.350Z,5.93
2023-02-11T15:52:52.072Z,6.10
2023-02-11T15:55:20.325Z,5.47
2023-02-11T15:57:52.348Z,5.73
2023-02-11T16:00:22.218Z,5.20
2023-02-11T16:02:51.920Z,5.83
2023-02-11T16:05:28.087Z,5.07
2023-02-11T16:07:56.848Z,5.80
2023-02-11T16:10:28.051Z,6.53
2023-02-11T16:13:00.526Z,5.90
2023-02-11T16:15:43.256Z,5.77
2023-02-11T16:18:36.759Z,5.80
2023-02-11T16:21:06.713Z,6.77
2023-02-11T16:23:36.020Z,5.57
2023-02-11T16:26:08.492Z,5.97
2023-02-11T16:28:37.332Z,5.20
2023-02-11T16:31:05.441Z,5.87
2023-02-11T16:33:34.609Z,5.93
2023-02-11T16:36:02.348Z,6.23
2023-02-11T16:38:31.407Z,6.00
2023-02-11T16:40:59.085Z,6.23
2023-02-11T16:43:26.727Z,6.13
2023-02-11T16:45:54.426Z,5.73
2023-02-11T16:48:22.175Z,5.30
2023-02-11T16:50:53.555Z,5.53
2023-02-11T16:53:23.864Z,6.47
2023-02-11T16:55:51.880Z,5.50
2023-02-11T16:58:19.916Z,7.30
2023-02-11T17:00:48.691Z,6.10
2023-02-11T17:03:19.409Z,6.30
2023-02-11T17:05:55.476Z,5.80
2023-02-11T17:08:24.968Z,6.17
2023-02-11T17:10:53.007Z,6.47
2023-02-11T17:13:20.925Z,6.43
2023-02-11T17:15:48.610Z,5.77
2023-02-11T17:18:16.378Z,6.80
2023-02-11T17:20:44.081Z,5.80
2023-02-11T17:23:11.722Z,6.50
2023-02-11T17:25:41.030Z,6.53
2023-02-11T17:28:09.716Z,6.13
2023-02-11T17:30:37.513Z,5.97
2023-02-11T17:33:05.248Z,6.60
2023-02-11T17:35:32.915Z,5.47
2023-02-11T17:38:01.429Z,6.40
2023-02-11T17:40:29.118Z,6.27
2023-02-11T17:42:58.144Z,6.87
2023-02-11T17:45:25.876Z,6.07
2023-02-11T17:47:53.620Z,6.00
2023-02-11T17:50:21.524Z,5.93
2023-02-11T17:52:49.246Z,6.37
2023-02-11T17:55:17.038Z,6.20
2023-02-11T17:57:44.752Z,6.30
2023-02-11T18:00:15.195Z,7.03
2023-02-11T18:02:42.943Z,6.80
2023-02-11T18:05:11.162Z,7.43
2023-02-11T18:07:38.871Z,7.13
2023-02-11T18:10:07.726Z,6.63
2023-02-11T18:12:35.458Z,6.90
2023-02-11T18:15:03.360Z,6.93
2023-02-11T18:17:32.475Z,6.37
2023-02-11T18:20:00.279Z,7.37
2023-02-11T18:22:28.221Z,8.40
2023-02-11T18:24:56.040Z,6.40
2023-02-11T18:27:23.826Z,6.97
2023-02-11T18:29:51.724Z,6.70
2023-02-11T18:32:19.412Z,7.77
2023-02-11T18:34:48.767Z,6.70
2023-02-11T18:37:17.027Z,7.13
2023-02-11T18:39:45.537Z,6.83
2023-02-11T18:42:13.203Z,6.37
2023-02-11T18:44:41.006Z,6.10
2023-02-11T18:47:08.656Z,7.50
2023-02-11T18:49:36.705Z,6.13
2023-02-11T18:52:06.199Z,7.53
2023-02-11T18:54:33.909Z,6.57
2023-02-11T18:57:01.680Z,7.77
2023-02-11T18:59:29.826Z,6.90
2023-02-11T19:01:57.592Z,6.77
2023-02-11T19:04:25.338Z,6.63
2023-02-11T19:06:52.991Z,6.77
2023-02-11T19:09:22.254Z,6.33
2023-02-11T19:11:50.719Z,7.63
2023-02-11T19:14:21.703Z,7.40
2023-02-11T19:16:51.264Z,7.10
2023-02-11T19:19:20.241Z,7.67
2023-02-11T19:21:48.806Z,6.63
2023-02-11T19:24:18.993Z,6.60
2023-02-11T19:26:48.674Z,7.30
2023-02-11T19:29:16.485Z,7.03
2023-02-11T19:31:44.784Z,6.20
2023-02-11T19:34:14.422Z,7.30
2023-02-11T19:36:42.501Z,6.70
2023-02-11T19:39:10.371Z,7.17
2023-02-11T19:41:38.223Z,7.73
2023-02-11T19:44:08.151Z,7.10
2023-02-11T19:46:37.575Z,7.97
2023-02-11T19:49:06.160Z,8.10
2023-02-11T19:51:35.677Z,7.33
2023-02-11T19:54:03.378Z,8.70
2023-02-11T19:56:31.099Z,8.53
2023-02-11T19:58:58.916Z,9.23
2023-02-11T20:01:28.067Z,7.70
2023-02-11T20:03:57.302Z,8.47
2023-02-11T20:06:26.294Z,8.33
2023-02-11T20:08:58.213Z,8.20
2023-02-11T20:11:27.001Z,9.10
2023-02-11T20:13:54.916Z,8.90
2023-02-11T20:16:33.961Z,9.57
2023-02-11T20:19:17.487Z,9.23
2023-02-11T20:21:47.103Z,9.00
2023-02-11T20:24:15.520Z,9.50
2023-02-11T20:26:43.319Z,8.57
2023-02-11T20:29:10.998Z,8.47
2023-02-11T20:31:38.831Z,9.40
2023-02-11T20:34:06.635Z,9.50
2023-02-11T20:36:38.070Z,9.57
2023-02-11T20:39:07.355Z,9.10
2023-02-11T20:41:36.233Z,9.43
2023-02-11T20:44:06.005Z,10.30
2023-02-11T20:46:35.047Z,10.37
2023-02-11T20:49:03.284Z,9.97
2023-02-11T20:51:32.980Z,10.33
2023-02-11T20:54:02.447Z,10.67
2023-02-11T20:56:31.805Z,10.37
2023-02-11T20:59:00.574Z,10.77
2023-02-11T21:01:30.466Z,9.93
2023-02-11T21:03:59.913Z,11.10
2023-02-11T21:06:31.401Z,10.13
2023-02-11T21:08:59.106Z,9.83
2023-02-11T21:11:28.170Z,9.77
2023-02-11T21:13:55.820Z,10.40
2023-02-11T21:16:23.668Z,9.50
2023-02-11T21:18:52.240Z,9.20
2023-02-11T21:21:20.777Z,9.07
2023-02-11T21:23:48.696Z,9.43
2023-02-11T21:26:16.996Z,9.87
2023-02-11T21:28:46.052Z,9.40
2023-02-11T21:31:20.195Z,9.23
2023-02-11T21:33:48.165Z,10.17
2023-02-11T21:36:15.886Z,10.03
2023-02-11T21:38:43.534Z,9.90
2023-02-11T21:41:11.260Z,9.80
2023-02-11T21:43:39.250Z,9.47
2023-02-11T21:46:11.142Z,9.83
2023-02-11T21:48:39.145Z,9.70
2023-02-11T21:51:08.414Z,9.97
2023-02-11T21:53:36.565Z,8.83
2023-02-11T21:56:06.240Z,10.17
2023-02-11T21:58:34.010Z,9.90
2023-02-11T22:01:01.774Z,10.80
2023-02-11T22:03:30.866Z,9.73
2023-02-11T22:05:58.568Z,11.77
2023-02-11T22:08:26.315Z,12.07
2023-02-11T22:10:53.955Z,10.97
2023-02-11T22:13:21.667Z,11.00
2023-02-11T22:15:58.847Z,11.33
2023-02-11T22:18:26.705Z,10.33
2023-02-11T22:21:02.898Z,11.47
2023-02-11T22:23:30.960Z,11.53
2023-02-11T22:25:59.379Z,11.53
2023-02-11T22:28:27.193Z,11.23
2023-02-11T22:30:55.888Z,12.20
2023-02-11T22:33:23.858Z,11.87
2023-02-11T22:35:59.070Z,12.37
2023-02-11T22:38:28.710Z,12.00
2023-02-11T22:40:56.785Z,13.03
2023-02-11T22:43:24.509Z,14.17
2023-02-11T22:45:52.422Z,14.33
2023-02-11T22:48:23.003Z,13.73
2023-02-11T22:50:50.827Z,15.27
2023-02-11T22:53:18.576Z,16.00
2023-02-11T22:55:47.653Z,14.97
2023-02-11T22:58:15.404Z,15.17
2023-02-11T23:00:43.545Z,15.37
2023-02-11T23:03:11.833Z,16.57
2023-02-11T23:05:40.333Z,16.53
2023-02-11T23:08:08.812Z,17.60
2023-02-11T23:10:37.041Z,16.63
2023-02-11T23:13:07.251Z,18.70
2023-02-11T23:15:35.032Z,18.43
2023-02-11T23:18:02.744Z,17.50
2023-02-11T23:20:30.824Z,20.13
2023-02-11T23:22:58.528Z,19.57
2023-02-11T23:25:26.258Z,17.33
2023-02-11T23:27:53.936Z,18.50
2023-02-11T23:30:23.307Z,18.87
2023-02-11T23:32:51.572Z,19.60
2023-02-11T23:35:23.161Z,19.23
2023-02-11T23:37:51.627Z,20.30
2023-02-11T23:40:19.642Z,20.37
2023-02-11T23:42:49.020Z,21.80
2023-02-11T23:45:17.253Z,20.77
2023-02-11T23:47:47.620Z,20.37
2023-02-11T23:50:15.490Z,21.27
2023-02-11T23:52:43.229Z,24.10
2023-02-11T23:55:11.031Z,21.47
2023-02-11T23:57:38.753Z,23.27
